| time (UTC) | temp F | wind direction | speed MPH | gust MPH | rain 1hr in | rain 24hr in | rain mn in | humidity % | barometer mb |
| 20260508130011 | 0 | 0.0 | 0.0 | 0.00 | 0.00 | 0.00 | 1004.6 | ||
| 20260508124507 | 72 | 46 | 0.0 | 0.0 | 0.00 | 0.00 | 0.00 | 78 | 1004.5 |
| 20260508123009 | 72 | 46 | 0.0 | 1.0 | 0.00 | 0.00 | 0.00 | 79 | 1004.5 |
| 20260508121505 | 72 | 46 | 0.0 | 0.0 | 0.00 | 0.00 | 0.00 | 79 | 1004.4 |
| 20260508120003 | 72 | 46 | 0.0 | 0.0 | 0.00 | 0.00 | 0.00 | 79 | 1004.3 |
| 20260508114502 | 72 | 46 | 0.0 | 2.0 | 0.00 | 0.00 | 0.00 | 78 | 1004.1 |
| 20260508113000 | 72 | 45 | 0.0 | 3.0 | 0.00 | 0.00 | 0.00 | 79 | 1004.1 |
| 20260508111604 | 72 | 46 | 0.0 | 2.0 | 0.00 | 0.00 | 0.00 | 78 | 1004.0 |
| 20260508110106 | 72 | 45 | 0.0 | 0.0 | 0.00 | 0.00 | 0.00 | 78 | 1004.0 |
| 20260508104559 | 73 | 45 | 0.0 | 0.0 | 0.00 | 0.00 | 0.00 | 77 | 1004.0 |
| 20260508103059 | 73 | 46 | 0.0 | 0.0 | 0.00 | 0.00 | 0.00 | 77 | 1004.0 |
| 20260508101602 | 73 | 45 | 0.0 | 1.0 | 0.00 | 0.00 | 0.00 | 77 | 1004.1 |
| 20260508100123 | 73 | 46 | 0.0 | 1.0 | 0.00 | 0.00 | 0.00 | 77 | 1004.1 |
| 20260508094552 | 73 | 46 | 0.0 | 2.0 | 0.00 | 0.00 | 0.00 | 76 | 1004.2 |
| 20260508093050 | 73 | 45 | 0.0 | 0.0 | 0.00 | 0.00 | 0.00 | 76 | 1004.3 |
| 20260508091606 | 73 | 45 | 0.0 | 0.0 | 0.00 | 0.00 | 0.00 | 75 | 1004.3 |
| 20260508090050 | 74 | 46 | 0.0 | 0.0 | 0.00 | 0.00 | 0.00 | 75 | 1003.9 |
| 20260508084517 | 74 | 46 | 0.0 | 0.0 | 0.00 | 0.00 | 0.00 | 75 | 1004.4 |
| 20260508083016 | 74 | 45 | 0.0 | 0.0 | 0.00 | 0.00 | 0.00 | 75 | 1002.9 |
| 20260508081515 | 74 | 45 | 0.0 | 0.0 | 0.00 | 0.00 | 0.00 | 75 | 1004.2 |
| 20260508080013 | 74 | 45 | 0.0 | 0.0 | 0.00 | 0.00 | 0.00 | 74 | 1003.3 |
| 20260508074512 | 75 | 46 | 0.0 | 1.0 | 0.00 | 0.00 | 0.00 | 73 | 1004.1 |
| 20260508073011 | 74 | 46 | 0.0 | 0.0 | 0.00 | 0.00 | 0.00 | 72 | 1002.9 |
| 20260508071509 | 74 | 46 | 0.0 | 0.0 | 0.00 | 0.00 | 0.00 | 70 | 1003.1 |
| 20260508070008 | 74 | 45 | 0.0 | 0.0 | 0.00 | 0.00 | 0.00 | 69 | 1004.3 |
| 20260508064510 | 74 | 45 | 0.0 | 0.0 | 0.00 | 0.00 | 0.00 | 69 | 1001.5 |
| 20260508063007 | 74 | 46 | 0.0 | 1.0 | 0.00 | 0.00 | 0.00 | 69 | 1002.9 |
| 20260508061502 | 75 | 45 | 0.0 | 0.0 | 0.00 | 0.00 | 0.00 | 71 | 1004.1 |
| 20260508060130 | 75 | 46 | 0.0 | 0.0 | 0.00 | 0.00 | 0.00 | 71 | 1004.3 |
| 20260508054640 | 76 | 45 | 0.0 | 2.0 | 0.00 | 0.00 | 0.00 | 71 | 996.5 |
| 20260508053058 | 76 | 46 | 0.0 | 2.0 | 0.00 | 0.00 | 0.00 | 70 | 1002.1 |
| 20260508051553 | 76 | 45 | 0.0 | 4.0 | 0.00 | 0.00 | 0.00 | 69 | 995.2 |
| 20260508050053 | 76 | 46 | 0.0 | 3.0 | 0.00 | 0.00 | 0.00 | 68 | 987.1 |
| 20260508044551 | 76 | 46 | 2.0 | 5.0 | 0.00 | 0.00 | 0.00 | 66 | 991.4 |
| 20260508043057 | 76 | 50 | 1.0 | 5.0 | 0.00 | 0.00 | 0.00 | 64 | 987.3 |
| 20260508041548 | 76 | 54 | 2.0 | 5.0 | 0.00 | 0.00 | 0.00 | 61 | 989.5 |
| 20260508040045 | 76 | 57 | 2.0 | 5.0 | 0.00 | 0.00 | 0.00 | 58 | 995.1 |
| 20260508034549 | 76 | 52 | 2.0 | 5.0 | 0.00 | 0.00 | 0.00 | 56 | 1000.1 |
| 20260508033042 | 77 | 48 | 3.0 | 6.0 | 0.00 | 0.00 | 0.00 | 56 | 999.6 |
| 20260508031541 | 77 | 46 | 3.0 | 5.0 | 0.00 | 0.00 | 0.00 | 54 | 992.9 |
| 20260508030043 | 77 | 31 | 3.0 | 6.0 | 0.00 | 0.00 | 0.00 | 52 | 987.5 |
| 20260508024544 | 78 | 31 | 2.0 | 4.0 | 0.00 | 0.00 | 0.00 | 50 | 977.1 |
| 20260508023039 | 78 | 37 | 2.0 | 5.0 | 0.00 | 0.00 | 0.00 | 50 | 985.7 |
| 20260508021537 | 79 | 41 | 1.0 | 4.0 | 0.00 | 0.00 | 0.00 | 47 | 986.0 |
| 20260508020036 | 80 | 48 | 2.0 | 4.0 | 0.00 | 0.00 | 0.00 | 46 | 988.3 |
| 20260508014538 | 81 | 55 | 1.0 | 3.0 | 0.00 | 0.00 | 0.00 | 44 | 988.3 |
| 20260508013035 | 83 | 113 | 0.0 | 3.0 | 0.00 | 0.00 | 0.00 | 39 | 994.9 |
| 20260508011534 | 86 | 16 | 1.0 | 5.0 | 0.00 | 0.00 | 0.00 | 32 | 997.3 |
| 20260508010045 | 85 | 250 | 2.0 | 7.0 | 0.00 | 0.00 | 0.00 | 29 | 994.7 |
| 20260508004532 | 85 | 290 | 3.0 | 7.0 | 0.00 | 0.00 | 0.00 | 30 | 995.4 |
| 20260508003032 | 84 | 261 | 3.0 | 7.0 | 0.00 | 0.00 | 0.00 | 34 | 996.0 |
| 20260508001505 | 84 | 264 | 2.0 | 5.0 | 0.00 | 0.00 | 0.00 | 40 | 994.5 |
| 20260508000001 | 82 | 239 | 1.0 | 5.0 | 0.00 | 0.00 | 0.00 | 48 | 989.6 |
| 20260507234603 | 82 | 233 | 2.0 | 5.0 | 0.00 | 0.00 | 0.00 | 46 | 989.6 |
| 20260507233058 | 81 | 213 | 3.0 | 5.0 | 0.00 | 0.00 | 0.00 | 48 | 990.0 |
| 20260507231557 | 83 | 217 | 3.0 | 6.0 | 0.00 | 0.00 | 0.00 | 42 | 989.3 |
| 20260507230056 | 84 | 200 | 3.0 | 6.0 | 0.00 | 0.00 | 0.00 | 37 | 988.7 |
| 20260507224554 | 84 | 228 | 3.0 | 5.0 | 0.00 | 0.00 | 0.00 | 34 | 992.7 |
| 20260507223055 | 86 | 223 | 3.0 | 6.0 | 0.00 | 0.00 | 0.00 | 29 | 986.0 |
| 20260507221552 | 85 | 217 | 3.0 | 7.0 | 0.00 | 0.00 | 0.00 | 28 | 993.0 |
| 20260507220050 | 84 | 208 | 3.0 | 6.0 | 0.00 | 0.00 | 0.00 | 42 | 999.6 |
| 20260507214550 | 84 | 228 | 3.0 | 6.0 | 0.00 | 0.00 | 0.00 | 43 | 997.6 |
| 20260507213048 | 84 | 250 | 3.0 | 9.0 | 0.00 | 0.00 | 0.00 | 44 | 990.2 |
| 20260507211552 | 84 | 199 | 2.0 | 6.0 | 0.00 | 0.00 | 0.00 | 46 | 990.2 |
| 20260507210046 | 85 | 204 | 3.0 | 7.0 | 0.00 | 0.00 | 0.00 | 45 | 998.2 |
| 20260507204544 | 85 | 213 | 2.0 | 6.0 | 0.00 | 0.00 | 0.00 | 48 | 998.2 |
| 20260507203043 | 85 | 208 | 3.0 | 7.0 | 0.00 | 0.00 | 0.00 | 51 | 1002.9 |
| 20260507201543 | 86 | 177 | 3.0 | 6.0 | 0.00 | 0.00 | 0.00 | 51 | 1004.4 |
| 20260507200041 | 85 | 215 | 4.0 | 6.0 | 0.00 | 0.00 | 0.00 | 49 | 1005.3 |
| 20260507194539 | 85 | 202 | 3.0 | 5.0 | 0.00 | 0.00 | 0.00 | 53 | 999.5 |
| 20260507193037 | 85 | 225 | 2.0 | 5.0 | 0.00 | 0.00 | 0.00 | 56 | 1004.6 |
| 20260507191533 | 84 | 244 | 2.0 | 6.0 | 0.00 | 0.00 | 0.00 | 58 | 1004.9 |
| 20260507190028 | 83 | 183 | 2.0 | 5.0 | 0.00 | 0.00 | 0.00 | 61 | 1003.4 |
| 20260507184527 | 83 | 213 | 3.0 | 5.0 | 0.00 | 0.00 | 0.00 | 63 | 1000.5 |
| 20260507183035 | 83 | 167 | 2.0 | 6.0 | 0.00 | 0.00 | 0.00 | 65 | 999.7 |
| 20260507181519 | 83 | 218 | 2.0 | 5.0 | 0.00 | 0.00 | 0.00 | 67 | 998.6 |
| 20260507180015 | 83 | 184 | 3.0 | 5.0 | 0.00 | 0.00 | 0.00 | 65 | 997.2 |
| 20260507174516 | 83 | 154 | 1.0 | 4.0 | 0.00 | 0.00 | 0.00 | 67 | 997.2 |
| 20260507173045 | 82 | 210 | 1.0 | 5.0 | 0.00 | 0.00 | 0.00 | 69 | 1001.8 |
| 20260507171553 | 82 | 198 | 2.0 | 4.0 | 0.00 | 0.00 | 0.00 | 71 | 1001.2 |
| 20260507170036 | 81 | 135 | 1.0 | 4.0 | 0.00 | 0.00 | 0.00 | 72 | 1005.6 |
| 20260507164544 | 81 | 141 | 2.0 | 4.0 | 0.00 | 0.00 | 0.00 | 71 | 1005.4 |
| 20260507163043 | 82 | 85 | 1.0 | 5.0 | 0.00 | 0.00 | 0.00 | 72 | 1005.4 |
| 20260507161539 | 81 | 87 | 1.0 | 5.0 | 0.00 | 0.00 | 0.00 | 72 | 1001.5 |
| 20260507160039 | 80 | 143 | 1.0 | 4.0 | 0.00 | 0.00 | 0.00 | 74 | 999.3 |
| 20260507154523 | 79 | 114 | 0.0 | 3.0 | 0.00 | 0.00 | 0.00 | 75 | 1000.0 |
| 20260507153019 | 79 | 121 | 1.0 | 3.0 | 0.00 | 0.00 | 0.00 | 74 | 998.9 |
| 20260507151519 | 79 | 85 | 1.0 | 4.0 | 0.00 | 0.00 | 0.00 | 75 | 999.9 |
| 20260507150020 | 78 | 79 | 2.0 | 6.0 | 0.00 | 0.00 | 0.00 | 74 | 1006.3 |
| 20260507144521 | 77 | 75 | 2.0 | 8.0 | 0.00 | 0.00 | 0.00 | 75 | 1005.0 |
| 20260507143013 | 77 | 82 | 2.0 | 4.0 | 0.00 | 0.00 | 0.00 | 75 | 1004.8 |
| 20260507141515 | 77 | 61 | 3.0 | 5.0 | 0.00 | 0.00 | 0.00 | 76 | 1002.4 |
| 20260507140006 | 0 | 0.0 | 0.0 | 0.00 | 0.00 | 0.00 | 1005.7 | ||
| 20260507134600 | 0 | 0.0 | 0.0 | 0.00 | 0.00 | 0.00 | 1005.7 | ||
| 20260507133101 | 0 | 0.0 | 0.0 | 0.00 | 0.00 | 0.00 | 1005.6 | ||
| 20260507131551 | 0 | 0.0 | 0.0 | 0.00 | 0.00 | 0.00 | 1005.4 |